createdAt,value
2018-07-07T00:00:57.649Z,65.69
2018-07-07T00:01:57.605Z,65.97
2018-07-07T00:02:57.564Z,66.26
2018-07-07T00:03:57.520Z,65.69
2018-07-07T00:04:57.487Z,65.97
2018-07-07T00:05:57.443Z,66.16
2018-07-07T00:06:57.399Z,65.69
2018-07-07T00:07:57.360Z,65.30
2018-07-07T00:08:57.322Z,65.59
2018-07-07T00:09:57.278Z,66.07
2018-07-07T00:10:57.238Z,64.34
2018-07-07T00:11:57.194Z,64.15
2018-07-07T00:12:57.157Z,63.57
2018-07-07T00:13:57.113Z,63.67
2018-07-07T00:14:57.073Z,63.38
2018-07-07T00:15:57.030Z,63.19
2018-07-07T00:16:56.990Z,62.81
2018-07-07T00:17:56.959Z,62.71
2018-07-07T00:18:56.910Z,61.94
2018-07-07T00:19:56.882Z,61.46
2018-07-07T00:20:56.828Z,61.55
2018-07-07T00:21:56.789Z,61.87
2018-07-07T00:22:56.751Z,61.65
2018-07-07T00:23:56.708Z,60.82
2018-07-07T00:24:56.663Z,60.72
2018-07-07T00:25:56.642Z,60.53
2018-07-07T00:26:56.589Z,59.95
2018-07-07T00:27:56.541Z,59.95
2018-07-07T00:28:56.502Z,60.05
2018-07-07T00:29:56.462Z,60.24
2018-07-07T00:30:56.421Z,59.19
2018-07-07T00:31:56.384Z,59.09
2018-07-07T00:32:56.339Z,58.89
2018-07-07T00:33:56.300Z,58.51
2018-07-07T00:34:56.258Z,58.70
2018-07-07T00:35:56.232Z,58.61
2018-07-07T00:36:56.180Z,58.42
2018-07-07T00:37:56.139Z,57.65
2018-07-07T00:38:56.094Z,57.75
2018-07-07T00:39:56.054Z,57.55
2018-07-07T00:40:56.014Z,57.75
2018-07-07T00:41:55.974Z,56.49
2018-07-07T00:42:55.938Z,55.63
2018-07-07T00:43:55.895Z,56.11
2018-07-07T00:44:55.856Z,56.68
2018-07-07T00:45:55.813Z,56.40
2018-07-07T00:46:55.772Z,54.86
2018-07-07T00:47:55.737Z,54.67
2018-07-07T00:48:55.696Z,53.03
2018-07-07T00:49:55.648Z,53.61
2018-07-07T00:50:55.614Z,52.65
2018-07-07T00:51:55.564Z,51.98
2018-07-07T00:52:55.524Z,51.98
2018-07-07T00:53:55.483Z,51.88
2018-07-07T00:54:55.441Z,51.88
2018-07-07T00:55:55.400Z,51.40
2018-07-07T00:56:55.359Z,50.82
2018-07-07T00:57:55.318Z,50.63
2018-07-07T00:58:55.279Z,50.15
2018-07-07T00:59:55.241Z,49.29
2018-07-07T01:00:55.196Z,49.57
2018-07-07T01:01:55.161Z,48.13
2018-07-07T01:02:55.118Z,48.33
2018-07-07T01:03:55.073Z,47.94
2018-07-07T01:04:55.041Z,47.75
2018-07-07T01:05:54.994Z,47.75
2018-07-07T01:06:54.957Z,48.13
2018-07-07T01:07:54.912Z,49.29
2018-07-07T01:08:54.872Z,48.43
2018-07-07T01:09:54.830Z,48.33
2018-07-07T01:10:54.790Z,48.13
2018-07-07T01:11:54.752Z,48.71
2018-07-07T01:12:54.712Z,48.81
2018-07-07T01:13:54.674Z,49.00
2018-07-07T01:14:54.630Z,48.33
2018-07-07T01:15:54.586Z,48.04
2018-07-07T01:16:54.545Z,48.33
2018-07-07T01:17:54.505Z,48.71
2018-07-07T01:18:54.467Z,48.71
2018-07-07T01:19:54.424Z,48.81
2018-07-07T01:20:54.388Z,49.10
2018-07-07T01:21:54.342Z,49.29
2018-07-07T01:22:54.301Z,49.19
2018-07-07T01:23:54.262Z,48.71
2018-07-07T01:24:54.219Z,49.38
2018-07-07T01:25:54.178Z,49.67
2018-07-07T01:26:54.139Z,49.38
2018-07-07T01:27:54.096Z,49.00
2018-07-07T01:28:54.056Z,48.90
2018-07-07T01:29:54.017Z,49.19
2018-07-07T01:30:53.975Z,48.43
2018-07-07T01:31:53.935Z,48.71
2018-07-07T01:32:53.893Z,49.67
2018-07-07T01:33:53.854Z,49.48
2018-07-07T01:34:53.818Z,49.29
2018-07-07T01:35:53.774Z,49.29
2018-07-07T01:36:53.732Z,49.87
2018-07-07T01:37:53.696Z,50.25
2018-07-07T01:38:53.652Z,50.25
2018-07-07T01:39:53.609Z,50.54
2018-07-07T01:40:53.571Z,50.63
2018-07-07T01:41:53.527Z,50.63
2018-07-07T01:42:53.489Z,50.82
2018-07-07T01:43:53.447Z,51.11
2018-07-07T01:44:53.439Z,51.79
2018-07-07T01:45:53.366Z,52.17
2018-07-07T01:46:53.325Z,52.17
2018-07-07T01:47:53.284Z,51.69
2018-07-07T01:48:53.243Z,52.36
2018-07-07T01:49:53.202Z,52.17
2018-07-07T01:50:53.161Z,51.40
2018-07-07T01:51:53.122Z,51.88
2018-07-07T01:52:53.080Z,52.17
2018-07-07T01:53:53.039Z,51.79
2018-07-07T01:54:53.002Z,51.21
2018-07-07T01:55:52.958Z,51.21
2018-07-07T01:56:52.917Z,51.69
2018-07-07T01:57:52.880Z,51.21
2018-07-07T01:58:52.837Z,50.82
2018-07-07T01:59:52.798Z,50.63
2018-07-07T02:00:52.755Z,50.44
2018-07-07T02:01:52.723Z,50.25
2018-07-07T02:02:52.678Z,50.92
2018-07-07T02:03:52.634Z,51.02
2018-07-07T02:04:52.593Z,50.73
2018-07-07T02:05:52.556Z,50.82
2018-07-07T02:06:52.513Z,50.54
2018-07-07T02:07:52.475Z,51.21
2018-07-07T02:08:52.431Z,49.96
2018-07-07T02:09:52.389Z,49.29
2018-07-07T02:10:52.351Z,50.82
2018-07-07T02:11:52.306Z,50.15
2018-07-07T02:12:52.266Z,50.54
2018-07-07T02:13:52.225Z,50.44
2018-07-07T02:14:52.187Z,49.77
2018-07-07T02:15:52.144Z,50.15
2018-07-07T02:16:52.105Z,50.25
2018-07-07T02:17:52.066Z,50.05
2018-07-07T02:18:52.078Z,49.87
2018-07-07T02:19:51.980Z,49.87
2018-07-07T02:20:51.940Z,49.87
2018-07-07T02:21:51.900Z,49.19
2018-07-07T02:22:51.864Z,49.77
2018-07-07T02:23:51.827Z,49.87
2018-07-07T02:24:51.781Z,50.44
2018-07-07T02:25:52.300Z,49.77
2018-07-07T02:26:51.698Z,50.15
2018-07-07T02:27:51.657Z,50.15
2018-07-07T02:28:51.620Z,49.67
2018-07-07T02:29:51.578Z,51.11
2018-07-07T02:30:51.535Z,50.63
2018-07-07T02:31:51.494Z,49.77
2018-07-07T02:32:51.451Z,51.02
2018-07-07T02:33:51.410Z,50.54
2018-07-07T02:34:51.372Z,50.34
2018-07-07T02:35:51.331Z,49.77
2018-07-07T02:36:51.288Z,49.57
2018-07-07T02:37:51.249Z,49.93
2018-07-07T02:38:51.208Z,50.54
2018-07-07T02:39:51.169Z,50.63
2018-07-07T02:40:51.123Z,50.42
2018-07-07T02:41:51.092Z,49.96
2018-07-07T02:42:51.042Z,49.36
2018-07-07T02:43:51.008Z,50.03
2018-07-07T02:44:50.961Z,50.44
2018-07-07T02:45:50.921Z,50.23
2018-07-07T02:46:50.881Z,50.23
2018-07-07T02:47:50.839Z,51.18
2018-07-07T02:48:50.797Z,50.61
2018-07-07T02:49:50.758Z,50.61
2018-07-07T02:50:50.719Z,50.61
2018-07-07T02:51:50.690Z,51.09
2018-07-07T02:52:50.638Z,50.51
2018-07-07T02:53:50.607Z,50.51
2018-07-07T02:54:50.553Z,51.28
2018-07-07T02:55:50.514Z,50.90
2018-07-07T02:56:50.474Z,50.96
2018-07-07T02:57:50.437Z,51.76
2018-07-07T02:58:50.391Z,51.95
2018-07-07T02:59:50.353Z,50.96
2018-07-07T03:00:50.309Z,51.45
2018-07-07T03:01:50.268Z,51.45
2018-07-07T03:02:50.225Z,51.83
2018-07-07T03:03:50.187Z,51.54
2018-07-07T03:04:50.146Z,51.93
2018-07-07T03:05:50.152Z,52.12
2018-07-07T03:06:50.063Z,51.93
2018-07-07T03:07:50.020Z,53.17
2018-07-07T03:08:49.983Z,52.79
2018-07-07T03:09:49.939Z,52.98
2018-07-07T03:10:49.899Z,52.98
2018-07-07T03:11:49.859Z,52.89
2018-07-07T03:12:49.817Z,52.86
2018-07-07T03:13:49.776Z,53.53
2018-07-07T03:14:49.739Z,53.82
2018-07-07T03:15:49.692Z,54.01
2018-07-07T03:16:49.652Z,54.68
2018-07-07T03:17:49.611Z,54.49
2018-07-07T03:18:49.576Z,54.49
2018-07-07T03:19:49.529Z,54.01
2018-07-07T03:20:49.488Z,53.63
2018-07-07T03:21:49.446Z,53.91
2018-07-07T03:22:49.410Z,53.91
2018-07-07T03:23:49.408Z,54.58
2018-07-07T03:24:49.325Z,54.58
2018-07-07T03:25:49.280Z,54.49
2018-07-07T03:26:49.240Z,54.97
2018-07-07T03:27:49.200Z,55.07
2018-07-07T03:28:49.162Z,55.45
2018-07-07T03:29:49.114Z,55.35
2018-07-07T03:30:49.077Z,55.55
2018-07-07T03:31:49.031Z,56.02
2018-07-07T03:32:48.992Z,56.31
2018-07-07T03:33:48.951Z,56.60
2018-07-07T03:34:48.908Z,56.02
2018-07-07T03:35:48.872Z,57.46
2018-07-07T03:36:48.827Z,57.46
2018-07-07T03:37:48.786Z,57.37
2018-07-07T03:38:48.746Z,56.70
2018-07-07T03:39:48.701Z,57.46
2018-07-07T03:40:48.660Z,57.56
2018-07-07T03:41:48.619Z,56.89
2018-07-07T03:42:48.579Z,56.79
2018-07-07T03:43:48.536Z,55.93
2018-07-07T03:44:48.495Z,55.74
2018-07-07T03:45:48.454Z,55.26
2018-07-07T03:46:48.414Z,55.26
2018-07-07T03:47:48.371Z,55.07
2018-07-07T03:48:48.332Z,54.97
2018-07-07T03:49:48.287Z,55.16
2018-07-07T03:50:48.250Z,55.35
2018-07-07T03:51:48.207Z,55.35
2018-07-07T03:52:48.163Z,55.74
2018-07-07T03:53:48.122Z,55.64
2018-07-07T03:54:48.084Z,55.64
2018-07-07T03:55:48.045Z,55.64
2018-07-07T03:56:47.996Z,55.35
2018-07-07T03:57:47.955Z,55.35
2018-07-07T03:58:47.945Z,56.41
2018-07-07T03:59:47.873Z,56.41
2018-07-07T04:00:48.110Z,56.02
2018-07-07T04:01:47.907Z,55.83
2018-07-07T04:02:47.902Z,55.74
2018-07-07T04:03:47.859Z,55.45
2018-07-07T04:04:47.665Z,55.16
2018-07-07T04:05:47.626Z,55.55
2018-07-07T04:06:47.587Z,55.74
2018-07-07T04:07:47.542Z,55.35
2018-07-07T04:08:47.502Z,55.55
2018-07-07T04:09:47.463Z,56.98
2018-07-07T04:10:47.422Z,56.41
2018-07-07T04:11:47.381Z,55.35
2018-07-07T04:12:47.334Z,55.16
2018-07-07T04:13:47.297Z,55.55
2018-07-07T04:14:47.261Z,55.74
2018-07-07T04:15:47.216Z,56.41
2018-07-07T04:16:47.176Z,56.02
2018-07-07T04:17:47.132Z,56.22
2018-07-07T04:18:47.089Z,56.12
2018-07-07T04:19:47.045Z,55.64
2018-07-07T04:20:47.004Z,55.55
2018-07-07T04:21:46.967Z,55.45
2018-07-07T04:22:46.925Z,55.35
2018-07-07T04:23:46.880Z,55.45
2018-07-07T04:24:46.838Z,55.83
2018-07-07T04:25:46.800Z,55.74
2018-07-07T04:26:46.755Z,56.41
2018-07-07T04:27:46.714Z,55.74
2018-07-07T04:28:46.675Z,55.55
2018-07-07T04:29:46.631Z,56.89
2018-07-07T04:30:46.590Z,55.55
2018-07-07T04:31:46.549Z,55.26
2018-07-07T04:32:46.512Z,55.74
2018-07-07T04:33:46.466Z,55.74
2018-07-07T04:34:46.431Z,56.41
2018-07-07T04:35:46.387Z,56.41
2018-07-07T04:36:46.342Z,56.15
2018-07-07T04:37:46.303Z,55.45
2018-07-07T04:38:46.259Z,55.74
2018-07-07T04:39:46.219Z,56.24
2018-07-07T04:40:46.180Z,55.67
2018-07-07T04:41:46.140Z,55.38
2018-07-07T04:42:46.103Z,55.67
2018-07-07T04:43:46.054Z,55.57
2018-07-07T04:44:46.011Z,55.38
2018-07-07T04:45:45.969Z,55.67
2018-07-07T04:46:45.929Z,56.44
2018-07-07T04:47:45.889Z,56.15
2018-07-07T04:48:45.848Z,55.57
2018-07-07T04:49:45.806Z,55.86
2018-07-07T04:50:45.764Z,56.53
2018-07-07T04:51:45.724Z,55.86
2018-07-07T04:52:45.680Z,55.00
2018-07-07T04:53:45.642Z,55.00
2018-07-07T04:54:45.599Z,55.19
2018-07-07T04:55:45.561Z,55.47
2018-07-07T04:56:45.516Z,54.61
2018-07-07T04:57:45.476Z,54.90
2018-07-07T04:58:45.449Z,55.29
2018-07-07T04:59:45.398Z,55.10
2018-07-07T05:00:45.351Z,55.19
2018-07-07T05:01:45.309Z,55.86
2018-07-07T05:02:45.291Z,55.96
2018-07-07T05:03:45.228Z,55.67
2018-07-07T05:04:45.187Z,55.38
2018-07-07T05:05:45.150Z,54.90
2018-07-07T05:06:45.104Z,55.00
2018-07-07T05:07:45.064Z,55.29
2018-07-07T05:08:45.025Z,54.80
2018-07-07T05:09:44.983Z,54.80
2018-07-07T05:10:44.942Z,55.19
2018-07-07T05:11:44.901Z,55.19
2018-07-07T05:12:44.857Z,55.00
2018-07-07T05:13:44.817Z,55.10
2018-07-07T05:14:44.776Z,54.80
2018-07-07T05:15:44.737Z,54.52
2018-07-07T05:16:44.694Z,54.61
2018-07-07T05:17:44.656Z,54.61
2018-07-07T05:18:44.614Z,54.42
2018-07-07T05:19:44.570Z,54.52
2018-07-07T05:20:44.530Z,54.04
2018-07-07T05:21:44.487Z,53.94
2018-07-07T05:22:44.448Z,54.04
2018-07-07T05:23:44.405Z,53.56
2018-07-07T05:24:44.365Z,53.56
2018-07-07T05:25:44.321Z,52.89
2018-07-07T05:26:44.287Z,52.98
2018-07-07T05:27:44.241Z,53.46
2018-07-07T05:28:44.200Z,53.56
2018-07-07T05:29:44.156Z,53.56
2018-07-07T05:30:44.115Z,53.56
2018-07-07T05:31:44.141Z,52.81
2018-07-07T05:32:44.032Z,52.98
2018-07-07T05:33:43.994Z,53.56
2018-07-07T05:34:43.958Z,53.01
2018-07-07T05:35:43.908Z,53.01
2018-07-07T05:36:43.870Z,53.01
2018-07-07T05:37:43.826Z,52.50
2018-07-07T05:38:43.788Z,52.91
2018-07-07T05:39:43.745Z,52.91
2018-07-07T05:40:43.703Z,53.20
2018-07-07T05:41:43.664Z,53.30
2018-07-07T05:42:43.621Z,53.49
2018-07-07T05:43:43.582Z,52.72
2018-07-07T05:44:43.543Z,53.39
2018-07-07T05:45:43.505Z,52.53
2018-07-07T05:46:43.460Z,51.95
2018-07-07T05:47:43.416Z,52.05
2018-07-07T05:48:43.377Z,51.67
2018-07-07T05:49:43.338Z,50.80
2018-07-07T05:50:43.296Z,50.80
2018-07-07T05:51:43.252Z,50.99
2018-07-07T05:52:43.210Z,51.57
2018-07-07T05:53:43.172Z,51.76
2018-07-07T05:54:43.137Z,51.86
2018-07-07T05:55:43.091Z,51.76
2018-07-07T05:56:43.047Z,51.67
2018-07-07T05:57:43.007Z,51.57
2018-07-07T05:58:42.966Z,51.47
2018-07-07T05:59:42.923Z,51.09
2018-07-07T06:00:42.883Z,50.03
2018-07-07T06:01:42.842Z,50.25
2018-07-07T06:02:42.802Z,50.13
2018-07-07T06:03:42.761Z,49.10
2018-07-07T06:04:42.718Z,48.90
2018-07-07T06:05:42.687Z,49.19
2018-07-07T06:06:42.641Z,50.15
2018-07-07T06:07:42.598Z,50.63
2018-07-07T06:08:42.556Z,49.96
2018-07-07T06:09:42.517Z,49.87
2018-07-07T06:10:42.479Z,49.19
2018-07-07T06:11:42.431Z,49.77
2018-07-07T06:12:42.391Z,49.48
2018-07-07T06:13:42.353Z,49.38
2018-07-07T06:14:42.314Z,49.19
2018-07-07T06:15:42.271Z,49.00
2018-07-07T06:16:42.235Z,49.19
2018-07-07T06:17:42.187Z,49.96
2018-07-07T06:18:42.147Z,49.67
2018-07-07T06:19:42.117Z,49.87
2018-07-07T06:20:42.068Z,49.48
2018-07-07T06:21:42.032Z,49.38
2018-07-07T06:22:41.990Z,49.57
2018-07-07T06:23:41.948Z,50.27
2018-07-07T06:24:41.903Z,50.76
2018-07-07T06:25:41.863Z,51.14
2018-07-07T06:26:41.858Z,50.56
2018-07-07T06:27:41.783Z,50.56
2018-07-07T06:28:41.739Z,50.76
2018-07-07T06:29:41.711Z,51.04
2018-07-07T06:30:41.661Z,51.04
2018-07-07T06:31:41.617Z,51.04
2018-07-07T06:32:41.577Z,50.85
2018-07-07T06:33:41.540Z,51.33
2018-07-07T06:34:41.496Z,51.43
2018-07-07T06:35:41.457Z,51.14
2018-07-07T06:36:41.415Z,51.04
2018-07-07T06:37:41.374Z,50.85
2018-07-07T06:38:41.332Z,50.76
2018-07-07T06:39:41.291Z,50.27
2018-07-07T06:40:41.260Z,49.72
2018-07-07T06:41:41.213Z,50.01
2018-07-07T06:42:41.170Z,50.10
2018-07-07T06:43:41.143Z,49.72
2018-07-07T06:44:41.087Z,49.63
2018-07-07T06:45:41.050Z,49.53
2018-07-07T06:46:41.009Z,49.53
2018-07-07T06:47:40.965Z,48.95
2018-07-07T06:48:40.927Z,48.85
2018-07-07T06:49:42.138Z,49.43
2018-07-07T06:50:40.846Z,48.95
2018-07-07T06:51:40.809Z,49.05
2018-07-07T06:52:40.764Z,48.85
2018-07-07T06:53:40.800Z,47.70
2018-07-07T06:54:40.683Z,47.80
2018-07-07T06:55:40.642Z,47.44
2018-07-07T06:56:40.602Z,46.86
2018-07-07T06:57:40.560Z,47.24
2018-07-07T06:58:40.525Z,46.67
2018-07-07T06:59:40.507Z,46.47
2018-07-07T07:00:40.441Z,46.67
2018-07-07T07:01:40.404Z,44.93
2018-07-07T07:02:40.368Z,45.13
2018-07-07T07:03:40.319Z,44.45
2018-07-07T07:04:40.281Z,44.55
2018-07-07T07:05:40.241Z,43.11
2018-07-07T07:06:40.199Z,43.20
2018-07-07T07:07:40.161Z,42.63
2018-07-07T07:08:40.118Z,41.86
2018-07-07T07:09:40.083Z,41.59
2018-07-07T07:10:40.044Z,42.84
2018-07-07T07:11:39.999Z,42.74
2018-07-07T07:12:39.958Z,42.26
2018-07-07T07:13:39.916Z,41.39
2018-07-07T07:14:39.878Z,40.14
2018-07-07T07:15:39.842Z,40.24
2018-07-07T07:16:39.798Z,41.30
2018-07-07T07:17:39.764Z,41.30
2018-07-07T07:18:39.716Z,41.20
2018-07-07T07:19:39.675Z,42.07
2018-07-07T07:20:39.638Z,41.71
2018-07-07T07:21:39.596Z,41.61
2018-07-07T07:22:39.560Z,41.51
2018-07-07T07:23:39.515Z,42.38
2018-07-07T07:24:39.474Z,41.41
2018-07-07T07:25:39.437Z,41.32
2018-07-07T07:26:39.398Z,42.47
2018-07-07T07:27:39.355Z,43.05
2018-07-07T07:28:39.317Z,43.34
2018-07-07T07:29:39.274Z,44.11
2018-07-07T07:30:39.236Z,43.92
2018-07-07T07:31:39.197Z,43.63
2018-07-07T07:32:39.157Z,43.44
2018-07-07T07:33:39.120Z,43.73
2018-07-07T07:34:39.079Z,43.54
2018-07-07T07:35:39.034Z,43.27
2018-07-07T07:36:38.997Z,43.75
2018-07-07T07:37:38.959Z,42.97
2018-07-07T07:38:38.920Z,42.40
2018-07-07T07:39:38.878Z,42.59
2018-07-07T07:40:38.839Z,43.46
2018-07-07T07:41:38.805Z,43.94
2018-07-07T07:42:38.759Z,43.75
2018-07-07T07:43:38.718Z,43.75
2018-07-07T07:44:38.682Z,44.23
2018-07-07T07:45:38.637Z,43.65
2018-07-07T07:46:38.598Z,43.38
2018-07-07T07:47:38.560Z,42.61
2018-07-07T07:48:38.520Z,42.32
2018-07-07T07:49:38.481Z,42.61
2018-07-07T07:50:42.494Z,43.87
2018-07-07T07:51:38.403Z,43.67
2018-07-07T07:52:38.363Z,44.64
2018-07-07T07:53:38.320Z,44.06
2018-07-07T07:54:38.280Z,43.48
2018-07-07T07:55:38.242Z,44.25
2018-07-07T07:56:38.204Z,43.00
2018-07-07T07:57:38.163Z,42.63
2018-07-07T07:58:38.147Z,42.54
2018-07-07T07:59:38.085Z,42.63
2018-07-07T08:00:38.047Z,42.73
2018-07-07T08:01:38.006Z,43.02
2018-07-07T08:02:37.967Z,43.31
2018-07-07T08:03:37.926Z,41.86
2018-07-07T08:04:37.889Z,42.25
2018-07-07T08:05:37.851Z,42.56
2018-07-07T08:06:37.814Z,42.56
2018-07-07T08:07:37.770Z,42.08
2018-07-07T08:08:37.731Z,41.30
2018-07-07T08:09:37.693Z,41.40
2018-07-07T08:10:37.655Z,40.82
2018-07-07T08:11:37.616Z,42.00
2018-07-07T08:12:37.577Z,42.58
2018-07-07T08:13:37.539Z,40.84
2018-07-07T08:14:37.497Z,40.94
2018-07-07T08:15:37.459Z,39.59
2018-07-07T08:16:37.417Z,40.45
2018-07-07T08:17:37.384Z,39.70
2018-07-07T08:18:37.344Z,39.90
2018-07-07T08:19:37.305Z,40.77
2018-07-07T08:20:37.268Z,39.99
2018-07-07T08:21:37.223Z,38.83
2018-07-07T08:22:37.253Z,39.24
2018-07-07T08:23:37.149Z,38.95
2018-07-07T08:24:37.149Z,39.72
2018-07-07T08:25:37.067Z,40.11
2018-07-07T08:26:37.030Z,39.16
2018-07-07T08:27:36.988Z,38.10
2018-07-07T08:28:36.950Z,38.48
2018-07-07T08:29:36.930Z,37.90
2018-07-07T08:30:36.874Z,37.71
2018-07-07T08:31:36.840Z,37.71
2018-07-07T08:32:36.796Z,37.81
2018-07-07T08:33:36.763Z,37.92
2018-07-07T08:34:36.721Z,38.60
2018-07-07T08:35:36.681Z,38.50
2018-07-07T08:36:36.642Z,38.50
2018-07-07T08:37:36.608Z,38.33
2018-07-07T08:38:36.569Z,38.23
2018-07-07T08:39:36.527Z,36.78
2018-07-07T08:40:36.491Z,36.40
2018-07-07T08:41:36.453Z,37.26
2018-07-07T08:42:36.415Z,37.36
2018-07-07T08:43:36.376Z,36.99
2018-07-07T08:44:36.339Z,36.90
2018-07-07T08:45:36.300Z,37.67
2018-07-07T08:46:36.262Z,36.80
2018-07-07T08:47:36.229Z,36.12
2018-07-07T08:48:36.206Z,35.93
2018-07-07T08:49:36.155Z,36.33
2018-07-07T08:50:36.113Z,36.80
2018-07-07T08:51:36.072Z,36.72
2018-07-07T08:52:36.041Z,36.62
2018-07-07T08:53:35.995Z,38.07
2018-07-07T08:54:35.959Z,37.21
2018-07-07T08:55:35.921Z,37.32
2018-07-07T08:56:35.885Z,37.23
2018-07-07T08:57:35.855Z,37.03
2018-07-07T08:58:35.807Z,36.85
2018-07-07T08:59:35.769Z,37.05
2018-07-07T09:00:35.769Z,36.76
2018-07-07T09:01:35.698Z,37.16
2018-07-07T09:02:35.659Z,36.97
2018-07-07T09:03:35.621Z,35.51
2018-07-07T09:04:35.590Z,34.95
2018-07-07T09:05:35.545Z,35.43
2018-07-07T09:06:35.510Z,34.95
2018-07-07T09:07:35.507Z,34.36
2018-07-07T09:08:35.435Z,34.27
2018-07-07T09:09:35.397Z,33.90
2018-07-07T09:10:35.360Z,35.35
2018-07-07T09:11:35.324Z,35.55
2018-07-07T09:12:35.293Z,35.66
2018-07-07T09:13:35.256Z,35.17
2018-07-07T09:14:35.219Z,34.98
2018-07-07T09:15:35.177Z,35.29
2018-07-07T09:16:35.147Z,34.42
2018-07-07T09:17:35.106Z,34.03
2018-07-07T09:18:35.067Z,35.11
2018-07-07T09:19:35.033Z,34.92
2018-07-07T09:20:34.999Z,34.92
2018-07-07T09:21:34.960Z,35.21
2018-07-07T09:22:34.928Z,34.14
2018-07-07T09:23:34.890Z,34.35
2018-07-07T09:24:34.894Z,33.48
2018-07-07T09:25:34.814Z,32.79
2018-07-07T09:26:34.777Z,33.86
2018-07-07T09:27:34.740Z,33.69
2018-07-07T09:28:34.704Z,32.42
2018-07-07T09:29:34.668Z,32.13
2018-07-07T09:30:34.636Z,32.79
2018-07-07T09:31:34.597Z,32.99
2018-07-07T09:32:34.562Z,34.06
2018-07-07T09:33:34.525Z,33.11
2018-07-07T09:34:34.490Z,32.91
2018-07-07T09:35:34.453Z,33.39
2018-07-07T09:36:34.417Z,34.08
2018-07-07T09:37:34.382Z,33.59
2018-07-07T09:38:34.347Z,33.78
2018-07-07T09:39:34.310Z,32.62
2018-07-07T09:40:34.277Z,32.73
2018-07-07T09:41:34.240Z,32.82
2018-07-07T09:42:34.208Z,32.03
2018-07-07T09:43:34.170Z,33.41
2018-07-07T09:44:34.133Z,33.61
2018-07-07T09:45:34.100Z,33.61
2018-07-07T09:46:34.064Z,33.31
2018-07-07T09:47:34.026Z,33.70
2018-07-07T09:48:33.992Z,33.61
2018-07-07T09:49:33.975Z,33.61
2018-07-07T09:50:33.920Z,33.51
2018-07-07T09:51:33.885Z,33.02
2018-07-07T09:52:33.851Z,33.90
2018-07-07T09:53:33.814Z,34.09
2018-07-07T09:54:33.779Z,33.33
2018-07-07T09:55:33.741Z,33.12
2018-07-07T09:56:33.711Z,33.41
2018-07-07T09:57:33.674Z,33.41
2018-07-07T09:58:33.640Z,33.80
2018-07-07T09:59:33.603Z,34.11
2018-07-07T10:00:33.569Z,34.59
2018-07-07T10:01:33.531Z,34.79
2018-07-07T10:02:33.499Z,34.40
2018-07-07T10:03:33.463Z,33.82
2018-07-07T10:04:33.426Z,33.23
2018-07-07T10:05:33.390Z,34.31
2018-07-07T10:06:33.354Z,33.64
2018-07-07T10:07:33.367Z,33.73
2018-07-07T10:08:33.283Z,34.12
2018-07-07T10:09:33.251Z,33.15
2018-07-07T10:10:33.214Z,32.76
2018-07-07T10:11:33.178Z,33.73
2018-07-07T10:12:33.144Z,32.78
2018-07-07T10:13:33.117Z,33.07
2018-07-07T10:14:33.075Z,33.07
2018-07-07T10:15:33.037Z,32.29
2018-07-07T10:16:33.015Z,31.60
2018-07-07T10:17:32.975Z,32.19
2018-07-07T10:18:32.938Z,33.17
2018-07-07T10:19:32.898Z,33.26
2018-07-07T10:20:32.869Z,32.87
2018-07-07T10:21:32.830Z,31.80
2018-07-07T10:22:32.795Z,31.80
2018-07-07T10:23:32.764Z,32.48
2018-07-07T10:24:32.728Z,31.80
2018-07-07T10:25:32.693Z,32.78
2018-07-07T10:26:32.656Z,31.92
2018-07-07T10:27:32.626Z,31.82
2018-07-07T10:28:32.586Z,32.01
2018-07-07T10:29:32.556Z,32.11
2018-07-07T10:30:32.520Z,32.40
2018-07-07T10:31:32.509Z,32.40
2018-07-07T10:32:32.448Z,32.99
2018-07-07T10:33:32.411Z,32.01
2018-07-07T10:34:32.380Z,31.15
2018-07-07T10:35:32.341Z,31.74
2018-07-07T10:36:32.308Z,31.45
2018-07-07T10:37:32.453Z,31.54
2018-07-07T10:38:32.243Z,31.75
2018-07-07T10:39:32.205Z,31.54
2018-07-07T10:40:32.177Z,31.36
2018-07-07T10:41:32.142Z,30.38
2018-07-07T10:42:32.101Z,30.48
2018-07-07T10:43:32.067Z,30.48
2018-07-07T10:44:32.033Z,29.80
2018-07-07T10:45:32.046Z,30.48
2018-07-07T10:46:31.966Z,30.69
2018-07-07T10:47:31.987Z,30.98
2018-07-07T10:48:31.900Z,30.98
2018-07-07T10:49:31.862Z,30.20
2018-07-07T10:50:31.833Z,29.81
2018-07-07T10:51:31.795Z,30.22
2018-07-07T10:52:31.762Z,30.61
2018-07-07T10:53:31.727Z,30.32
2018-07-07T10:54:31.693Z,30.41
2018-07-07T10:55:31.703Z,30.02
2018-07-07T10:56:31.648Z,29.83
2018-07-07T10:57:31.594Z,30.71
2018-07-07T10:58:31.559Z,30.22
2018-07-07T10:59:31.522Z,30.51
2018-07-07T11:02:31.467Z,30.23
2018-07-07T11:03:31.389Z,30.62
2018-07-07T11:04:31.359Z,30.33
2018-07-07T11:05:31.317Z,29.74
2018-07-07T11:06:31.286Z,29.56
2018-07-07T11:07:31.253Z,28.39
2018-07-07T11:08:31.218Z,28.68
2018-07-07T11:09:31.183Z,28.88
2018-07-07T11:10:31.152Z,29.85
2018-07-07T11:11:31.125Z,29.07
2018-07-07T11:12:31.084Z,28.88
2018-07-07T11:13:31.050Z,28.97
2018-07-07T11:14:31.016Z,27.61
2018-07-07T11:15:30.982Z,27.50
2018-07-07T11:16:30.949Z,27.80
2018-07-07T11:17:30.922Z,27.50
2018-07-07T11:18:30.884Z,28.78
2018-07-07T11:19:30.847Z,28.78
2018-07-07T11:20:30.815Z,29.46
2018-07-07T11:22:30.748Z,28.68
2018-07-07T11:23:30.715Z,27.61
2018-07-07T11:24:30.681Z,28.09
2018-07-07T11:25:30.649Z,28.78
2018-07-07T11:26:30.614Z,28.68
2018-07-07T11:27:30.581Z,27.91
2018-07-07T11:28:30.547Z,27.50
2018-07-07T11:29:30.636Z,28.50
2018-07-07T11:30:30.508Z,28.29
2018-07-07T11:31:30.508Z,28.79
2018-07-07T11:32:30.512Z,27.62
2018-07-07T11:33:30.385Z,28.59
2018-07-07T11:34:30.386Z,29.48
2018-07-07T11:35:30.388Z,29.28
2018-07-07T11:36:30.487Z,28.30
2018-07-07T11:37:30.264Z,27.12
2018-07-07T11:38:30.265Z,27.52
2018-07-07T11:39:30.265Z,28.59
2018-07-07T11:40:30.226Z,28.30
2018-07-07T11:41:30.143Z,29.48
2018-07-07T11:42:30.144Z,28.11
2018-07-07T11:43:30.142Z,27.81
2018-07-07T11:44:30.024Z,27.62
2018-07-07T11:45:30.023Z,27.52
2018-07-07T11:46:30.031Z,28.69
2018-07-07T11:47:30.025Z,27.42
2018-07-07T11:48:29.903Z,28.79
2018-07-07T11:49:29.904Z,28.91
2018-07-07T11:50:29.963Z,28.12
2018-07-07T11:51:29.779Z,28.81
2018-07-07T11:52:29.784Z,28.71
2018-07-07T11:53:29.781Z,28.51
2018-07-07T11:54:29.780Z,27.73
2018-07-07T11:55:29.663Z,27.92
2018-07-07T11:56:29.658Z,27.64
2018-07-07T11:57:29.660Z,27.06
2018-07-07T11:58:29.660Z,27.64
2018-07-07T11:59:29.538Z,27.35
2018-07-07T12:00:29.541Z,26.46
2018-07-07T12:01:29.540Z,27.25
2018-07-07T12:02:29.419Z,26.76
2018-07-07T12:03:29.417Z,27.15
2018-07-07T12:04:29.466Z,26.96
2018-07-07T12:05:29.416Z,27.45
2018-07-07T12:06:29.297Z,27.45
2018-07-07T12:07:29.296Z,27.74
2018-07-07T12:08:29.375Z,27.64
2018-07-07T12:09:29.299Z,27.55
2018-07-07T12:10:29.188Z,27.17
2018-07-07T12:11:29.277Z,26.38
2018-07-07T12:12:29.175Z,26.09
2018-07-07T12:13:29.056Z,26.10
2018-07-07T12:14:29.054Z,26.29
2018-07-07T12:15:29.054Z,26.20
2018-07-07T12:16:29.056Z,25.90
2018-07-07T12:17:28.958Z,26.40
2018-07-07T12:18:28.934Z,26.90
2018-07-07T12:19:28.935Z,25.61
2018-07-07T12:20:28.893Z,25.72
2018-07-07T12:21:28.816Z,25.92
2018-07-07T12:22:28.814Z,26.01
2018-07-07T12:23:28.814Z,26.41
2018-07-07T12:24:28.693Z,26.23
2018-07-07T12:25:28.693Z,25.26
2018-07-07T12:26:28.693Z,25.65
2018-07-07T12:27:28.691Z,25.65
2018-07-07T12:28:28.575Z,24.66
2018-07-07T12:29:28.578Z,25.05
2018-07-07T12:30:28.571Z,25.04
2018-07-07T12:31:28.676Z,24.95
2018-07-07T12:32:28.452Z,25.54
2018-07-07T12:33:28.449Z,24.74
2018-07-07T12:34:28.449Z,25.33
2018-07-07T12:35:28.336Z,26.21
2018-07-07T12:36:28.332Z,25.82
2018-07-07T12:37:28.330Z,25.71
2018-07-07T12:38:28.329Z,26.29
2018-07-07T12:39:28.212Z,26.10
2018-07-07T12:40:28.250Z,26.28
2018-07-07T12:41:28.288Z,26.28
2018-07-07T12:42:28.209Z,26.68
2018-07-07T12:44:28.091Z,26.48
2018-07-07T12:45:28.087Z,26.37
2018-07-07T12:46:28.083Z,27.55
2018-07-07T12:47:27.979Z,26.96
2018-07-07T12:48:27.967Z,27.15
2018-07-07T12:49:27.970Z,26.67
2018-07-07T12:50:27.848Z,26.67
2018-07-07T12:51:27.846Z,26.65
2018-07-07T12:52:27.844Z,26.84
2018-07-07T12:53:27.845Z,26.35
2018-07-07T12:54:27.725Z,27.34
2018-07-07T12:57:27.682Z,27.72
2018-07-07T12:58:27.606Z,27.91